createdAt,value
2019-03-06T00:04:27.000Z,17.4
2019-03-06T00:14:27.000Z,17.2
2019-03-06T00:24:27.000Z,17.2
2019-03-06T00:34:27.000Z,17
2019-03-06T00:44:27.000Z,16.9
2019-03-06T00:54:27.000Z,16.9
2019-03-06T01:04:27.000Z,16.9
2019-03-06T01:14:27.000Z,16.8
2019-03-06T01:24:27.000Z,16.7
2019-03-06T01:34:27.000Z,16.8
2019-03-06T01:44:27.000Z,16.7
2019-03-06T01:54:27.000Z,16.7
2019-03-06T02:04:27.000Z,16.7
2019-03-06T02:14:27.000Z,16.8
2019-03-06T02:24:27.000Z,16.7
2019-03-06T02:34:27.000Z,16.7
2019-03-06T02:44:27.000Z,16.7
2019-03-06T02:54:27.000Z,16.6
2019-03-06T03:04:27.000Z,16.6
2019-03-06T03:14:28.000Z,16.6
2019-03-06T03:24:28.000Z,16.5
2019-03-06T03:34:28.000Z,16.5
2019-03-06T03:44:28.000Z,16.5
2019-03-06T03:54:28.000Z,16.4
2019-03-06T04:04:28.000Z,16.4
2019-03-06T04:14:28.000Z,16.3
2019-03-06T04:24:28.000Z,16.3
2019-03-06T04:34:28.000Z,16.3
2019-03-06T04:44:28.000Z,16.3
2019-03-06T04:54:28.000Z,16.4
2019-03-06T05:04:28.000Z,16.3
2019-03-06T05:14:28.000Z,16.3
2019-03-06T05:24:28.000Z,16.4
2019-03-06T05:34:31.000Z,16.3
2019-03-06T05:44:28.000Z,16.3
2019-03-06T05:54:28.000Z,16.3
2019-03-06T06:04:28.000Z,16.3
2019-03-06T06:14:28.000Z,16.3
2019-03-06T06:24:28.000Z,16.3
2019-03-06T06:34:28.000Z,16.5
2019-03-06T06:44:28.000Z,16.3
2019-03-06T06:54:28.000Z,16.5
2019-03-06T07:04:28.000Z,16.4
2019-03-06T07:14:28.000Z,16.5
2019-03-06T07:24:28.000Z,16.5
2019-03-06T07:34:28.000Z,16.4
2019-03-06T07:44:28.000Z,16.5
2019-03-06T07:54:28.000Z,16.5
2019-03-06T08:04:28.000Z,16.5
2019-03-06T08:14:28.000Z,16.5
2019-03-06T08:24:28.000Z,16.6
2019-03-06T08:34:28.000Z,16.6
2019-03-06T08:44:28.000Z,16.8
2019-03-06T08:54:28.000Z,16.8
2019-03-06T09:04:28.000Z,17
2019-03-06T09:14:28.000Z,17.6
2019-03-06T09:24:28.000Z,18.3
2019-03-06T09:34:28.000Z,18.7
2019-03-06T09:44:28.000Z,18.9
2019-03-06T09:54:28.000Z,19
2019-03-06T10:04:28.000Z,19.2
2019-03-06T10:14:28.000Z,19.3
2019-03-06T10:24:28.000Z,19.3
2019-03-06T10:34:29.000Z,19.4
2019-03-06T10:44:29.000Z,19.5
2019-03-06T10:54:29.000Z,19.5
2019-03-06T11:04:29.000Z,19.6
2019-03-06T11:14:29.000Z,19.6
2019-03-06T11:24:29.000Z,19.6
2019-03-06T11:34:29.000Z,19.6
2019-03-06T11:44:29.000Z,19.7
2019-03-06T11:54:29.000Z,19.8
2019-03-06T12:14:29.000Z,19.8
2019-03-06T12:24:29.000Z,19.9
2019-03-06T12:34:29.000Z,19.9
2019-03-06T12:44:31.000Z,20
2019-03-06T12:54:29.000Z,20.2
2019-03-06T13:04:29.000Z,20.2
2019-03-06T13:14:29.000Z,20.2
2019-03-06T13:24:29.000Z,20.2
2019-03-06T13:34:29.000Z,20.3
2019-03-06T13:44:29.000Z,20.3
2019-03-06T13:54:29.000Z,20.3
2019-03-06T14:04:29.000Z,20.2
2019-03-06T14:14:29.000Z,20.4
2019-03-06T14:24:29.000Z,20.3
2019-03-06T14:34:30.000Z,20.4
2019-03-06T14:44:29.000Z,20.4
2019-03-06T15:04:29.000Z,20.4
2019-03-06T15:14:29.000Z,20.4
2019-03-06T15:24:29.000Z,20.4
2019-03-06T15:34:29.000Z,20.4
2019-03-06T15:44:29.000Z,20.4
2019-03-06T15:54:29.000Z,20.5
2019-03-06T16:04:29.000Z,20.5
2019-03-06T16:24:30.000Z,20.5
2019-03-06T16:34:29.000Z,20.6
2019-03-06T16:44:29.000Z,20.6
2019-03-06T16:54:29.000Z,20.6
2019-03-06T17:04:29.000Z,20.6
2019-03-06T17:14:30.000Z,20.6
2019-03-06T17:24:30.000Z,20.6
2019-03-06T17:34:30.000Z,20.6
2019-03-06T17:44:30.000Z,20.7
2019-03-06T17:54:30.000Z,20.6
2019-03-06T18:04:30.000Z,20.6
2019-03-06T18:14:31.000Z,20.7
2019-03-06T18:24:30.000Z,20.7
2019-03-06T18:34:30.000Z,20.6
2019-03-06T18:44:30.000Z,20.6
2019-03-06T18:54:30.000Z,20.6
2019-03-06T19:04:30.000Z,20.6
2019-03-06T19:14:30.000Z,20.6
2019-03-06T19:24:30.000Z,20.6
2019-03-06T19:34:30.000Z,20.6
2019-03-06T19:44:31.000Z,20.7
2019-03-06T19:54:30.000Z,20.8
2019-03-06T20:04:30.000Z,20.8
2019-03-06T20:14:30.000Z,20.8
2019-03-06T20:24:30.000Z,20.8
2019-03-06T20:34:30.000Z,20.7
2019-03-06T20:44:30.000Z,20.7
2019-03-06T20:54:31.000Z,20.7
2019-03-06T21:04:30.000Z,20.7
2019-03-06T21:14:30.000Z,20.7
2019-03-06T21:24:30.000Z,20.7
2019-03-06T21:34:30.000Z,20.7
2019-03-06T21:44:30.000Z,20.7
2019-03-06T21:54:30.000Z,20.7
2019-03-06T22:04:30.000Z,20.7
2019-03-06T22:14:30.000Z,20.6
2019-03-06T22:24:30.000Z,20.7
2019-03-06T22:34:30.000Z,20.7
2019-03-06T22:44:30.000Z,20.7
2019-03-06T22:54:30.000Z,20.7
2019-03-06T23:04:30.000Z,20.7
2019-03-06T23:14:30.000Z,20.7
2019-03-06T23:24:30.000Z,20.8
2019-03-06T23:34:30.000Z,20.2
2019-03-06T23:44:30.000Z,19.8
2019-03-06T23:54:30.000Z,19.5
